sensor_id;sensor_type;location;lat;lon;timestamp;pressure;altitude;pressure_sealevel;temperature;humidity
79136;BME280;68533;51.090;17.216;2023-04-01T00:00:12;98385.41;;;6.11;89.75
79136;BME280;68533;51.090;17.216;2023-04-01T00:03:03;98381.16;;;6.05;90.66
79136;BME280;68533;51.090;17.216;2023-04-01T00:05:43;98389.25;;;5.97;90.33
79136;BME280;68533;51.090;17.216;2023-04-01T00:08:35;98392.38;;;5.90;90.66
79136;BME280;68533;51.090;17.216;2023-04-01T00:11:18;98389.75;;;5.85;90.25
79136;BME280;68533;51.090;17.216;2023-04-01T00:13:46;98395.94;;;5.91;89.95
79136;BME280;68533;51.090;17.216;2023-04-01T00:16:28;98386.53;;;5.97;90.00
79136;BME280;68533;51.090;17.216;2023-04-01T00:19:04;98390.28;;;6.14;90.29
79136;BME280;68533;51.090;17.216;2023-04-01T00:21:35;98387.81;;;6.40;88.92
79136;BME280;68533;51.090;17.216;2023-04-01T00:24:23;98387.59;;;6.50;89.64
79136;BME280;68533;51.090;17.216;2023-04-01T00:27:07;98383.00;;;6.59;89.14
79136;BME280;68533;51.090;17.216;2023-04-01T00:29:44;98385.22;;;6.71;88.76
79136;BME280;68533;51.090;17.216;2023-04-01T00:32:18;98380.25;;;6.73;89.13
79136;BME280;68533;51.090;17.216;2023-04-01T00:34:45;98382.97;;;6.73;88.20
79136;BME280;68533;51.090;17.216;2023-04-01T00:37:11;98384.09;;;6.72;89.77
79136;BME280;68533;51.090;17.216;2023-04-01T00:39:37;98384.41;;;6.71;89.30
79136;BME280;68533;51.090;17.216;2023-04-01T00:42:04;98375.38;;;6.70;89.01
79136;BME280;68533;51.090;17.216;2023-04-01T00:44:42;98377.00;;;6.71;88.95
79136;BME280;68533;51.090;17.216;2023-04-01T00:47:11;98373.25;;;6.67;89.11
79136;BME280;68533;51.090;17.216;2023-04-01T00:49:49;98375.59;;;6.74;88.48
79136;BME280;68533;51.090;17.216;2023-04-01T00:52:22;98382.34;;;6.76;89.09
79136;BME280;68533;51.090;17.216;2023-04-01T00:54:58;98386.28;;;6.84;88.39
79136;BME280;68533;51.090;17.216;2023-04-01T00:57:54;98389.69;;;6.89;87.69
79136;BME280;68533;51.090;17.216;2023-04-01T01:03:00;98376.22;;;6.93;87.62
79136;BME280;68533;51.090;17.216;2023-04-01T01:06:10;98376.91;;;6.98;86.72
79136;BME280;68533;51.090;17.216;2023-04-01T01:12:18;98379.34;;;7.00;87.42
79136;BME280;68533;51.090;17.216;2023-04-01T01:38:31;98377.53;;;6.95;88.13
79136;BME280;68533;51.090;17.216;2023-04-01T01:41:32;98375.41;;;6.92;87.77
79136;BME280;68533;51.090;17.216;2023-04-01T01:44:11;98376.84;;;6.90;88.47
79136;BME280;68533;51.090;17.216;2023-04-01T01:46:42;98375.25;;;6.89;88.04
79136;BME280;68533;51.090;17.216;2023-04-01T01:49:24;98369.88;;;6.84;88.78
79136;BME280;68533;51.090;17.216;2023-04-01T01:52:06;98367.16;;;6.84;88.26
79136;BME280;68533;51.090;17.216;2023-04-01T01:54:51;98373.00;;;6.91;88.21
79136;BME280;68533;51.090;17.216;2023-04-01T01:58:04;98378.56;;;6.86;88.97
79136;BME280;68533;51.090;17.216;2023-04-01T02:01:11;98367.53;;;6.91;88.38
79136;BME280;68533;51.090;17.216;2023-04-01T02:03:40;98368.63;;;6.90;88.10
79136;BME280;68533;51.090;17.216;2023-04-01T02:06:18;98375.13;;;6.94;88.44
79136;BME280;68533;51.090;17.216;2023-04-01T02:09:05;98369.94;;;6.92;88.86
79136;BME280;68533;51.090;17.216;2023-04-01T02:12:06;98374.44;;;6.88;88.93
79136;BME280;68533;51.090;17.216;2023-04-01T02:15:01;98368.63;;;6.90;89.83
79136;BME280;68533;51.090;17.216;2023-04-01T02:17:45;98362.34;;;6.89;89.50
79136;BME280;68533;51.090;17.216;2023-04-01T02:20:50;98359.47;;;6.86;90.19
79136;BME280;68533;51.090;17.216;2023-04-01T02:23:39;98359.63;;;6.89;89.20
79136;BME280;68533;51.090;17.216;2023-04-01T02:26:14;98353.38;;;6.89;89.66
79136;BME280;68533;51.090;17.216;2023-04-01T02:29:10;98350.00;;;6.92;89.22
79136;BME280;68533;51.090;17.216;2023-04-01T02:31:51;98349.72;;;6.93;88.43
79136;BME280;68533;51.090;17.216;2023-04-01T02:34:30;98351.31;;;6.94;89.44
79136;BME280;68533;51.090;17.216;2023-04-01T02:36:58;98357.59;;;6.95;89.15
79136;BME280;68533;51.090;17.216;2023-04-01T02:39:51;98351.31;;;6.94;89.29
79136;BME280;68533;51.090;17.216;2023-04-01T02:42:58;98357.59;;;6.95;89.09
79136;BME280;68533;51.090;17.216;2023-04-01T02:45:51;98362.56;;;6.93;89.91
79136;BME280;68533;51.090;17.216;2023-04-01T02:48:21;98359.69;;;6.98;89.28
79136;BME280;68533;51.090;17.216;2023-04-01T02:50:46;98366.09;;;6.93;88.79
79136;BME280;68533;51.090;17.216;2023-04-01T02:53:12;98366.91;;;6.94;89.30
79136;BME280;68533;51.090;17.216;2023-04-01T02:55:41;98371.75;;;6.97;89.25
79136;BME280;68533;51.090;17.216;2023-04-01T02:58:15;98367.59;;;6.99;88.63
79136;BME280;68533;51.090;17.216;2023-04-01T03:00:43;98369.00;;;6.97;89.42
79136;BME280;68533;51.090;17.216;2023-04-01T03:03:50;98369.50;;;6.99;88.72
79136;BME280;68533;51.090;17.216;2023-04-01T03:06:26;98373.38;;;6.98;89.27
79136;BME280;68533;51.090;17.216;2023-04-01T03:08:54;98370.31;;;6.99;89.05
79136;BME280;68533;51.090;17.216;2023-04-01T03:12:11;98371.13;;;7.00;89.28
79136;BME280;68533;51.090;17.216;2023-04-01T03:14:41;98368.59;;;7.04;88.86
79136;BME280;68533;51.090;17.216;2023-04-01T03:17:08;98373.25;;;7.03;88.81
79136;BME280;68533;51.090;17.216;2023-04-01T03:20:09;98377.56;;;7.04;89.18
79136;BME280;68533;51.090;17.216;2023-04-01T03:23:19;98378.59;;;7.08;88.12
79136;BME280;68533;51.090;17.216;2023-04-01T03:26:03;98387.78;;;7.12;89.13
79136;BME280;68533;51.090;17.216;2023-04-01T03:28:51;98381.25;;;7.22;88.27
79136;BME280;68533;51.090;17.216;2023-04-01T03:31:55;98384.81;;;7.22;88.71
79136;BME280;68533;51.090;17.216;2023-04-01T03:34:47;98382.69;;;7.19;88.53
79136;BME280;68533;51.090;17.216;2023-04-01T03:37:15;98378.81;;;7.20;88.56
79136;BME280;68533;51.090;17.216;2023-04-01T03:40:17;98385.91;;;7.21;88.00
79136;BME280;68533;51.090;17.216;2023-04-01T03:42:43;98379.53;;;7.26;88.50
79136;BME280;68533;51.090;17.216;2023-04-01T03:45:10;98381.94;;;7.27;88.80
79136;BME280;68533;51.090;17.216;2023-04-01T03:47:38;98383.53;;;7.28;87.82
79136;BME280;68533;51.090;17.216;2023-04-01T03:50:05;98371.81;;;7.28;88.45
79136;BME280;68533;51.090;17.216;2023-04-01T03:52:33;98385.16;;;7.29;88.55
79136;BME280;68533;51.090;17.216;2023-04-01T03:55:01;98391.25;;;7.26;88.63
79136;BME280;68533;51.090;17.216;2023-04-01T03:57:27;98383.03;;;7.26;89.01
79136;BME280;68533;51.090;17.216;2023-04-01T03:59:55;98396.25;;;7.24;88.80
79136;BME280;68533;51.090;17.216;2023-04-01T04:02:53;98401.00;;;7.19;90.00
79136;BME280;68533;51.090;17.216;2023-04-01T04:05:54;98401.34;;;7.17;90.11
79136;BME280;68533;51.090;17.216;2023-04-01T04:08:22;98393.75;;;7.14;90.27
79136;BME280;68533;51.090;17.216;2023-04-01T04:10:55;98398.22;;;7.10;91.02
79136;BME280;68533;51.090;17.216;2023-04-01T04:13:24;98402.38;;;7.08;90.48
79136;BME280;68533;51.090;17.216;2023-04-01T04:15:50;98400.47;;;7.08;91.21
79136;BME280;68533;51.090;17.216;2023-04-01T04:18:17;98402.06;;;7.09;90.89
79136;BME280;68533;51.090;17.216;2023-04-01T04:20:59;98405.41;;;7.06;91.58
79136;BME280;68533;51.090;17.216;2023-04-01T04:23:43;98405.41;;;7.06;91.21
79136;BME280;68533;51.090;17.216;2023-04-01T04:26:12;98409.91;;;7.02;92.43
79136;BME280;68533;51.090;17.216;2023-04-01T04:28:38;98403.94;;;7.00;91.98
79136;BME280;68533;51.090;17.216;2023-04-01T04:31:06;98411.63;;;6.98;92.23
79136;BME280;68533;51.090;17.216;2023-04-01T04:33:32;98411.75;;;6.93;92.92
79136;BME280;68533;51.090;17.216;2023-04-01T04:35:59;98409.81;;;6.93;92.52
79136;BME280;68533;51.090;17.216;2023-04-01T04:38:27;98413.97;;;6.91;92.57
79136;BME280;68533;51.090;17.216;2023-04-01T04:40:57;98412.97;;;6.87;93.52
79136;BME280;68533;51.090;17.216;2023-04-01T04:43:23;98413.78;;;6.87;93.48
79136;BME280;68533;51.090;17.216;2023-04-01T04:45:49;98411.88;;;6.88;92.75
79136;BME280;68533;51.090;17.216;2023-04-01T04:48:16;98411.06;;;6.87;93.42
79136;BME280;68533;51.090;17.216;2023-04-01T04:50:51;98411.53;;;6.89;92.89
79136;BME280;68533;51.090;17.216;2023-04-01T04:53:19;98411.88;;;6.88;93.51
79136;BME280;68533;51.090;17.216;2023-04-01T04:55:49;98411.88;;;6.88;93.41
79136;BME280;68533;51.090;17.216;2023-04-01T04:58:17;98418.97;;;6.89;93.98
79136;BME280;68533;51.090;17.216;2023-04-01T05:00:44;98411.53;;;6.89;93.58
79136;BME280;68533;51.090;17.216;2023-04-01T05:03:12;98413.50;;;6.89;93.42
79136;BME280;68533;51.090;17.216;2023-04-01T05:05:39;98419.13;;;6.92;93.83
79136;BME280;68533;51.090;17.216;2023-04-01T05:08:05;98418.03;;;6.93;93.28
79136;BME280;68533;51.090;17.216;2023-04-01T05:10:35;98420.75;;;6.93;93.74
79136;BME280;68533;51.090;17.216;2023-04-01T05:13:03;98418.19;;;6.97;94.00
79136;BME280;68533;51.090;17.216;2023-04-01T05:15:30;98416.28;;;6.97;93.84
79136;BME280;68533;51.090;17.216;2023-04-01T05:17:56;98423.56;;;7.02;93.56
79136;BME280;68533;51.090;17.216;2023-04-01T05:20:22;98423.56;;;7.02;93.66
79136;BME280;68533;51.090;17.216;2023-04-01T05:22:48;98422.13;;;7.05;93.59
79136;BME280;68533;51.090;17.216;2023-04-01T05:25:14;98423.25;;;7.04;93.60
79136;BME280;68533;51.090;17.216;2023-04-01T05:27:40;98417.28;;;7.01;93.42
79136;BME280;68533;51.090;17.216;2023-04-01T05:30:07;98420.53;;;7.04;93.58
79136;BME280;68533;51.090;17.216;2023-04-01T05:32:33;98425.19;;;7.03;93.30
79136;BME280;68533;51.090;17.216;2023-04-01T05:35:02;98428.41;;;7.05;93.13
79136;BME280;68533;51.090;17.216;2023-04-01T05:37:33;98418.09;;;7.02;93.45
79136;BME280;68533;51.090;17.216;2023-04-01T05:40:01;98419.22;;;7.01;93.64
79136;BME280;68533;51.090;17.216;2023-04-01T05:42:27;98421.94;;;7.01;93.80
79136;BME280;68533;51.090;17.216;2023-04-01T05:44:54;98424.84;;;7.05;93.64
79136;BME280;68533;51.090;17.216;2023-04-01T05:47:24;98425.34;;;7.07;94.14
79136;BME280;68533;51.090;17.216;2023-04-01T05:49:53;98423.94;;;7.09;94.02
79136;BME280;68533;51.090;17.216;2023-04-01T05:52:20;98428.78;;;7.12;94.12
79136;BME280;68533;51.090;17.216;2023-04-01T05:54:47;98425.94;;;7.17;93.53
79136;BME280;68533;51.090;17.216;2023-04-01T05:57:12;98427.56;;;7.18;93.66
79136;BME280;68533;51.090;17.216;2023-04-01T05:59:41;98420.63;;;7.21;93.69
79136;BME280;68533;51.090;17.216;2023-04-01T06:02:08;98425.50;;;7.24;93.73
79136;BME280;68533;51.090;17.216;2023-04-01T06:05:12;98432.59;;;7.25;93.43
79136;BME280;68533;51.090;17.216;2023-04-01T06:07:58;98427.13;;;7.25;93.60
79136;BME280;68533;51.090;17.216;2023-04-01T06:10:48;98434.50;;;7.24;94.05
79136;BME280;68533;51.090;17.216;2023-04-01T06:19:14;98446.06;;;7.21;94.06
79136;BME280;68533;51.090;17.216;2023-04-01T06:30:36;98450.63;;;7.26;94.50
79136;BME280;68533;51.090;17.216;2023-04-01T06:44:55;98447.81;;;7.39;94.32
79136;BME280;68533;51.090;17.216;2023-04-01T06:47:44;98461.03;;;7.46;94.26
79136;BME280;68533;51.090;17.216;2023-04-01T06:50:48;98459.50;;;7.54;93.90
79136;BME280;68533;51.090;17.216;2023-04-01T06:56:08;98458.38;;;7.55;94.07
79136;BME280;68533;51.090;17.216;2023-04-01T06:58:42;98462.41;;;7.57;93.69
79136;BME280;68533;51.090;17.216;2023-04-01T07:01:22;98462.28;;;7.62;94.63
79136;BME280;68533;51.090;17.216;2023-04-01T07:04:05;98462.59;;;7.61;94.36
79136;BME280;68533;51.090;17.216;2023-04-01T07:06:39;98457.72;;;7.58;94.37
79136;BME280;68533;51.090;17.216;2023-04-01T07:09:19;98460.03;;;7.64;93.89
79136;BME280;68533;51.090;17.216;2023-04-01T07:11:47;98459.59;;;7.71;93.96
79136;BME280;68533;51.090;17.216;2023-04-01T07:14:24;98458.97;;;7.74;93.84
79136;BME280;68533;51.090;17.216;2023-04-01T07:17:06;98462.38;;;7.79;94.64
79136;BME280;68533;51.090;17.216;2023-04-01T07:19:45;98463.44;;;7.92;94.25
79136;BME280;68533;51.090;17.216;2023-04-01T07:22:32;98466.47;;;7.91;93.56
79136;BME280;68533;51.090;17.216;2023-04-01T07:25:20;98468.75;;;7.97;93.73
79136;BME280;68533;51.090;17.216;2023-04-01T07:28:15;98468.44;;;7.99;93.32
79136;BME280;68533;51.090;17.216;2023-04-01T07:41:24;98473.19;;;8.15;93.25
79136;BME280;68533;51.090;17.216;2023-04-01T07:44:00;98477.09;;;8.23;91.85
79136;BME280;68533;51.090;17.216;2023-04-01T07:49:40;98478.38;;;8.26;92.68
79136;BME280;68533;51.090;17.216;2023-04-01T07:58:05;98480.81;;;8.27;91.70
79136;BME280;68533;51.090;17.216;2023-04-01T08:03:54;98486.38;;;8.36;91.91
79136;BME280;68533;51.090;17.216;2023-04-01T08:09:59;98495.88;;;8.38;92.09
79136;BME280;68533;51.090;17.216;2023-04-01T08:15:26;98495.63;;;8.57;90.07
79136;BME280;68533;51.090;17.216;2023-04-01T08:18:08;98507.91;;;8.68;90.66
79136;BME280;68533;51.090;17.216;2023-04-01T08:25:50;98508.91;;;8.89;90.22
79136;BME280;68533;51.090;17.216;2023-04-01T08:28:32;98502.66;;;8.89;89.25
79136;BME280;68533;51.090;17.216;2023-04-01T08:31:16;98510.41;;;8.95;89.89
79136;BME280;68533;51.090;17.216;2023-04-01T08:33:48;98505.88;;;9.00;89.94
79136;BME280;68533;51.090;17.216;2023-04-01T08:36:29;98508.00;;;9.03;90.03
79136;BME280;68533;51.090;17.216;2023-04-01T08:39:05;98503.66;;;9.10;89.09
79136;BME280;68533;51.090;17.216;2023-04-01T08:48:17;98505.72;;;9.05;89.40
79136;BME280;68533;51.090;17.216;2023-04-01T08:53:55;98509.78;;;9.24;88.27
79136;BME280;68533;51.090;17.216;2023-04-01T08:56:34;98498.00;;;9.41;87.91
79136;BME280;68533;51.090;17.216;2023-04-01T08:59:22;98520.13;;;9.45;88.53
79136;BME280;68533;51.090;17.216;2023-04-01T09:05:47;98515.28;;;9.33;87.33
79136;BME280;68533;51.090;17.216;2023-04-01T09:19:16;98524.00;;;9.69;85.07
79136;BME280;68533;51.090;17.216;2023-04-01T09:27:30;98527.50;;;9.96;85.29
79136;BME280;68533;51.090;17.216;2023-04-01T09:38:11;98538.09;;;10.40;82.76
79136;BME280;68533;51.090;17.216;2023-04-01T09:41:07;98531.75;;;10.48;82.33
79136;BME280;68533;51.090;17.216;2023-04-01T09:43:53;98542.03;;;10.13;82.63
79136;BME280;68533;51.090;17.216;2023-04-01T09:49:58;98546.00;;;10.42;81.23
79136;BME280;68533;51.090;17.216;2023-04-01T09:58:07;98542.38;;;9.95;83.31
79136;BME280;68533;51.090;17.216;2023-04-01T10:21:39;98557.56;;;9.92;86.15
79136;BME280;68533;51.090;17.216;2023-04-01T10:27:33;98566.44;;;9.89;86.42
79136;BME280;68533;51.090;17.216;2023-04-01T10:30:35;98566.13;;;9.65;86.47
79136;BME280;68533;51.090;17.216;2023-04-01T10:36:29;98575.81;;;9.62;85.80
79136;BME280;68533;51.090;17.216;2023-04-01T11:19:20;98582.91;;;9.63;88.06
79136;BME280;68533;51.090;17.216;2023-04-01T11:22:16;98581.97;;;9.85;87.58
79136;BME280;68533;51.090;17.216;2023-04-01T11:33:52;98603.22;;;10.40;85.98
79136;BME280;68533;51.090;17.216;2023-04-01T11:44:21;98606.63;;;10.92;82.80
79136;BME280;68533;51.090;17.216;2023-04-01T11:47:04;98614.09;;;10.83;83.85
79136;BME280;68533;51.090;17.216;2023-04-01T11:49:40;98613.69;;;10.64;83.40
79136;BME280;68533;51.090;17.216;2023-04-01T11:55:06;98610.22;;;10.20;84.24
79136;BME280;68533;51.090;17.216;2023-04-01T11:57:55;98617.63;;;10.02;84.46
79136;BME280;68533;51.090;17.216;2023-04-01T12:00:43;98627.31;;;9.74;85.14
79136;BME280;68533;51.090;17.216;2023-04-01T12:03:21;98632.13;;;9.51;86.43
79136;BME280;68533;51.090;17.216;2023-04-01T12:06:08;98625.66;;;9.39;85.84
79136;BME280;68533;51.090;17.216;2023-04-01T12:43:01;98634.75;;;10.17;83.62
79136;BME280;68533;51.090;17.216;2023-04-01T12:45:31;98631.69;;;10.44;85.21
79136;BME280;68533;51.090;17.216;2023-04-01T12:48:06;98638.28;;;10.52;83.07
79136;BME280;68533;51.090;17.216;2023-04-01T12:53:35;98637.09;;;10.70;81.82
79136;BME280;68533;51.090;17.216;2023-04-01T12:56:07;98634.53;;;10.65;82.75
79136;BME280;68533;51.090;17.216;2023-04-01T13:02:10;98640.50;;;11.13;82.20
79136;BME280;68533;51.090;17.216;2023-04-01T13:09:53;98651.63;;;12.38;78.47
79136;BME280;68533;51.090;17.216;2023-04-01T13:12:29;98642.22;;;12.39;74.86
79136;BME280;68533;51.090;17.216;2023-04-01T13:32:02;98655.34;;;12.42;73.41
79136;BME280;68533;51.090;17.216;2023-04-01T13:39:39;98664.16;;;11.94;75.83
79136;BME280;68533;51.090;17.216;2023-04-01T13:42:28;98663.16;;;11.98;75.07
79136;BME280;68533;51.090;17.216;2023-04-01T14:49:20;98707.41;;;10.88;76.71
79136;BME280;68533;51.090;17.216;2023-04-01T14:51:48;98712.72;;;10.93;78.47
79136;BME280;68533;51.090;17.216;2023-04-01T14:54:32;98704.66;;;10.88;77.74
79136;BME280;68533;51.090;17.216;2023-04-01T14:59:40;98719.84;;;10.94;77.91
79136;BME280;68533;51.090;17.216;2023-04-01T15:02:26;98724.06;;;10.83;78.54
79136;BME280;68533;51.090;17.216;2023-04-01T15:18:51;98737.69;;;10.79;79.93
79136;BME280;68533;51.090;17.216;2023-04-01T15:29:47;98757.19;;;10.09;83.38
79136;BME280;68533;51.090;17.216;2023-04-01T15:35:50;98762.13;;;9.72;85.12
79136;BME280;68533;51.090;17.216;2023-04-01T15:38:48;98769.09;;;9.70;86.31
79136;BME280;68533;51.090;17.216;2023-04-01T15:41:28;98774.22;;;9.63;87.20
79136;BME280;68533;51.090;17.216;2023-04-01T15:44:01;98771.13;;;9.56;86.08
79136;BME280;68533;51.090;17.216;2023-04-01T15:46:57;98762.19;;;9.42;87.56
79136;BME280;68533;51.090;17.216;2023-04-01T15:49:41;98762.94;;;9.25;87.73
79136;BME280;68533;51.090;17.216;2023-04-01T15:52:24;98767.78;;;9.28;88.88
79136;BME280;68533;51.090;17.216;2023-04-01T16:04:19;98765.53;;;9.30;88.99
79136;BME280;68533;51.090;17.216;2023-04-01T16:23:22;98788.06;;;9.18;88.48
79136;BME280;68533;51.090;17.216;2023-04-01T16:26:28;98786.75;;;9.16;88.04
79136;BME280;68533;51.090;17.216;2023-04-01T16:29:03;98792.84;;;9.13;88.51
79136;BME280;68533;51.090;17.216;2023-04-01T16:31:35;98790.72;;;9.01;89.37
79136;BME280;68533;51.090;17.216;2023-04-01T16:34:17;98805.28;;;9.10;88.23
79136;BME280;68533;51.090;17.216;2023-04-01T16:36:51;98809.22;;;8.95;88.89
79136;BME280;68533;51.090;17.216;2023-04-01T16:42:24;98822.94;;;8.95;89.92
79136;BME280;68533;51.090;17.216;2023-04-01T16:48:05;98836.25;;;8.88;90.06
79136;BME280;68533;51.090;17.216;2023-04-01T16:50:59;98840.56;;;8.81;90.18
79136;BME280;68533;51.090;17.216;2023-04-01T16:56:10;98838.56;;;8.73;91.50
79136;BME280;68533;51.090;17.216;2023-04-01T17:01:31;98850.34;;;8.73;90.60
79136;BME280;68533;51.090;17.216;2023-04-01T17:04:57;98855.44;;;8.66;91.72
79136;BME280;68533;51.090;17.216;2023-04-01T17:07:03;98864.56;;;8.62;91.30
79136;BME280;68533;51.090;17.216;2023-04-01T17:23:44;98877.66;;;8.65;91.34
79136;BME280;68533;51.090;17.216;2023-04-01T17:26:32;98891.34;;;8.65;91.08
79136;BME280;68533;51.090;17.216;2023-04-01T17:31:44;98892.59;;;8.59;91.68
79136;BME280;68533;51.090;17.216;2023-04-01T17:37:00;98906.91;;;8.55;91.17
79136;BME280;68533;51.090;17.216;2023-04-01T17:48:25;98927.31;;;8.36;91.34
79136;BME280;68533;51.090;17.216;2023-04-01T17:51:19;98929.03;;;8.32;90.56
79136;BME280;68533;51.090;17.216;2023-04-01T17:54:10;98935.81;;;8.21;91.63
79136;BME280;68533;51.090;17.216;2023-04-01T17:59:54;98934.78;;;8.16;91.50
79136;BME280;68533;51.090;17.216;2023-04-01T18:02:42;98940.56;;;8.01;91.95
79136;BME280;68533;51.090;17.216;2023-04-01T18:05:41;98947.16;;;8.00;91.17
79136;BME280;68533;51.090;17.216;2023-04-01T18:08:26;98950.22;;;7.99;91.74
79136;BME280;68533;51.090;17.216;2023-04-01T18:14:00;98958.19;;;7.95;92.71
79136;BME280;68533;51.090;17.216;2023-04-01T18:24:41;98971.28;;;7.85;92.33
79136;BME280;68533;51.090;17.216;2023-04-01T18:27:24;98976.53;;;7.81;91.95
79136;BME280;68533;51.090;17.216;2023-04-01T18:30:02;98977.63;;;7.80;91.52
79136;BME280;68533;51.090;17.216;2023-04-01T18:32:58;98987.16;;;7.69;91.77
79136;BME280;68533;51.090;17.216;2023-04-01T18:38:12;98991.53;;;7.70;91.93
79136;BME280;68533;51.090;17.216;2023-04-01T18:52:28;99014.00;;;7.67;91.21
79136;BME280;68533;51.090;17.216;2023-04-01T18:57:49;99015.88;;;7.53;91.89
79136;BME280;68533;51.090;17.216;2023-04-01T19:00:22;99023.50;;;7.56;92.48
79136;BME280;68533;51.090;17.216;2023-04-01T19:05:36;99031.59;;;7.61;92.63
79136;BME280;68533;51.090;17.216;2023-04-01T19:08:22;99033.38;;;7.52;93.04
79136;BME280;68533;51.090;17.216;2023-04-01T19:13:59;99038.84;;;7.52;92.33
79136;BME280;68533;51.090;17.216;2023-04-01T19:20:06;99041.38;;;7.48;92.69
79136;BME280;68533;51.090;17.216;2023-04-01T19:25:27;99049.44;;;7.39;92.66
79136;BME280;68533;51.090;17.216;2023-04-01T19:30:59;99050.13;;;7.31;92.84
79136;BME280;68533;51.090;17.216;2023-04-01T19:41:48;99064.66;;;7.27;93.21
79136;BME280;68533;51.090;17.216;2023-04-01T19:52:36;99070.19;;;7.22;93.00
79136;BME280;68533;51.090;17.216;2023-04-01T19:55:33;99079.50;;;7.21;93.37
79136;BME280;68533;51.090;17.216;2023-04-01T20:00:57;99083.59;;;7.23;92.56
79136;BME280;68533;51.090;17.216;2023-04-01T20:03:51;99079.31;;;7.17;92.82
79136;BME280;68533;51.090;17.216;2023-04-01T20:06:55;99090.53;;;7.16;92.78
79136;BME280;68533;51.090;17.216;2023-04-01T20:14:51;99099.94;;;7.05;93.72
79136;BME280;68533;51.090;17.216;2023-04-01T20:17:26;99097.81;;;7.01;92.84
79136;BME280;68533;51.090;17.216;2023-04-01T20:28:05;99106.03;;;7.01;92.46
79136;BME280;68533;51.090;17.216;2023-04-01T20:44:12;99119.88;;;6.86;93.19
79136;BME280;68533;51.090;17.216;2023-04-01T20:47:22;99123.94;;;6.89;93.29
79136;BME280;68533;51.090;17.216;2023-04-01T20:49:56;99127.19;;;6.91;93.09
79136;BME280;68533;51.090;17.216;2023-04-01T20:52:36;99123.94;;;6.89;93.77
79136;BME280;68533;51.090;17.216;2023-04-01T21:02:53;99120.31;;;6.93;93.37
79136;BME280;68533;51.090;17.216;2023-04-01T21:16:23;99150.31;;;6.75;92.92
79136;BME280;68533;51.090;17.216;2023-04-01T21:18:58;99148.41;;;6.75;93.23
79136;BME280;68533;51.090;17.216;2023-04-01T21:54:08;99185.63;;;6.42;93.19
79136;BME280;68533;51.090;17.216;2023-04-01T21:57:12;99187.00;;;6.40;93.66
79136;BME280;68533;51.090;17.216;2023-04-01T22:00:07;99186.75;;;6.36;93.49
79136;BME280;68533;51.090;17.216;2023-04-01T22:05:52;99194.75;;;6.28;93.20
79136;BME280;68533;51.090;17.216;2023-04-01T22:11:50;99196.66;;;6.27;92.50
79136;BME280;68533;51.090;17.216;2023-04-01T22:14:51;99203.78;;;6.23;93.09
79136;BME280;68533;51.090;17.216;2023-04-01T22:17:27;99200.53;;;6.21;92.69
79136;BME280;68533;51.090;17.216;2023-04-01T22:19:56;99210.91;;;6.19;92.64
79136;BME280;68533;51.090;17.216;2023-04-01T22:25:42;99214.78;;;6.13;93.18
79136;BME280;68533;51.090;17.216;2023-04-01T22:28:21;99212.06;;;6.13;93.31
79136;BME280;68533;51.090;17.216;2023-04-01T22:30:51;99221.91;;;6.09;93.67
79136;BME280;68533;51.090;17.216;2023-04-01T22:36:21;99216.50;;;6.04;93.21
79136;BME280;68533;51.090;17.216;2023-04-01T22:41:39;99219.78;;;6.01;93.12
79136;BME280;68533;51.090;17.216;2023-04-01T22:44:20;99217.03;;;6.01;93.98
79136;BME280;68533;51.090;17.216;2023-04-01T22:49:39;99226.13;;;5.91;93.33
79136;BME280;68533;51.090;17.216;2023-04-01T22:52:31;99233.72;;;5.94;93.60
79136;BME280;68533;51.090;17.216;2023-04-01T22:55:28;99234.03;;;5.93;93.69
79136;BME280;68533;51.090;17.216;2023-04-01T22:58:00;99234.59;;;5.79;93.32
79136;BME280;68533;51.090;17.216;2023-04-01T23:05:50;99253.81;;;5.59;93.51
79136;BME280;68533;51.090;17.216;2023-04-01T23:08:54;99246.47;;;5.55;92.90
79136;BME280;68533;51.090;17.216;2023-04-01T23:11:33;99253.03;;;5.48;93.92
79136;BME280;68533;51.090;17.216;2023-04-01T23:22:35;99266.19;;;5.26;94.13
79136;BME280;68533;51.090;17.216;2023-04-01T23:33:29;99275.53;;;5.10;93.77
79136;BME280;68533;51.090;17.216;2023-04-01T23:36:10;99284.78;;;5.09;94.01
79136;BME280;68533;51.090;17.216;2023-04-01T23:38:42;99279.63;;;5.07;93.80
79136;BME280;68533;51.090;17.216;2023-04-01T23:41:22;99281.28;;;4.88;93.80
79136;BME280;68533;51.090;17.216;2023-04-01T23:44:04;99287.81;;;4.82;93.77
79136;BME280;68533;51.090;17.216;2023-04-01T23:46:32;99296.53;;;4.84;93.89
79136;BME280;68533;51.090;17.216;2023-04-01T23:49:01;99293.28;;;4.77;93.76
79136;BME280;68533;51.090;17.216;2023-04-01T23:51:35;99302.28;;;4.73;94.21
79136;BME280;68533;51.090;17.216;2023-04-01T23:54:18;99307.69;;;4.67;93.22
79136;BME280;68533;51.090;17.216;2023-04-01T23:56:52;99310.72;;;4.66;93.69
79136;BME280;68533;51.090;17.216;2023-04-01T23:59:27;99309.63;;;4.57;93.44
